createdAt,value
2023-01-12T00:02:26.664Z,100.00
2023-01-12T00:04:54.355Z,100.00
2023-01-12T00:07:22.062Z,100.00
2023-01-12T00:09:49.699Z,100.00
2023-01-12T00:12:17.493Z,100.00
2023-01-12T00:14:45.461Z,100.00
2023-01-12T00:17:17.109Z,100.00
2023-01-12T00:19:44.748Z,100.00
2023-01-12T00:22:12.760Z,100.00
2023-01-12T00:24:49.847Z,100.00
2023-01-12T00:27:20.082Z,100.00
2023-01-12T00:29:49.174Z,100.00
2023-01-12T00:32:20.396Z,100.00
2023-01-12T00:34:48.068Z,100.00
2023-01-12T00:37:15.967Z,100.00
2023-01-12T00:39:53.127Z,100.00
2023-01-12T00:42:43.486Z,100.00
2023-01-12T00:45:23.891Z,100.00
2023-01-12T00:47:52.053Z,99.62
2023-01-12T00:50:19.899Z,95.73
2023-01-12T00:52:47.688Z,98.77
2023-01-12T06:12:12.898Z,100.00
2023-01-12T06:14:40.331Z,100.00
2023-01-12T06:17:07.838Z,100.00
2023-01-12T06:19:35.460Z,100.00
2023-01-12T06:22:02.944Z,100.00
2023-01-12T06:24:30.420Z,100.00
2023-01-12T06:26:58.635Z,100.00
2023-01-12T06:29:26.310Z,100.00
2023-01-12T06:31:53.723Z,100.00
2023-01-12T06:34:21.189Z,100.00
2023-01-12T06:36:49.469Z,100.00
2023-01-12T06:39:24.659Z,100.00
2023-01-12T06:42:29.408Z,100.00
2023-01-12T06:45:01.184Z,100.00
2023-01-12T06:47:32.067Z,100.00
2023-01-12T06:50:01.072Z,100.00
2023-01-12T06:52:30.366Z,100.00
2023-01-12T06:55:11.313Z,100.00
2023-01-12T06:57:40.652Z,100.00
2023-01-12T07:00:10.143Z,100.00
2023-01-12T07:02:37.936Z,100.00
2023-01-12T07:05:06.909Z,100.00
2023-01-12T07:07:34.970Z,100.00
2023-01-12T07:10:02.349Z,100.00
2023-01-12T07:12:30.471Z,100.00
2023-01-12T07:14:59.422Z,100.00
2023-01-12T07:17:27.651Z,100.00
2023-01-12T07:19:56.072Z,100.00
2023-01-12T07:22:26.083Z,100.00
2023-01-12T07:24:56.479Z,100.00
2023-01-12T07:27:28.063Z,100.00
2023-01-12T07:29:56.687Z,100.00
2023-01-12T07:32:27.472Z,100.00
2023-01-12T07:34:55.110Z,100.00
2023-01-12T07:37:22.686Z,100.00
2023-01-12T07:39:50.196Z,100.00
2023-01-12T07:42:23.492Z,100.00
2023-01-12T07:44:52.250Z,100.00
2023-01-12T07:47:19.734Z,100.00
2023-01-12T07:49:47.357Z,100.00
2023-01-12T07:52:16.302Z,100.00
2023-01-12T07:54:50.583Z,100.00
2023-01-12T07:57:18.914Z,100.00
2023-01-12T07:59:46.266Z,100.00
2023-01-12T08:02:17.451Z,100.00
2023-01-12T08:04:46.098Z,100.00
2023-01-12T08:07:14.913Z,100.00
2023-01-12T08:09:42.389Z,100.00
2023-01-12T08:12:10.483Z,100.00
2023-01-12T08:14:40.458Z,100.00
2023-01-12T08:17:12.881Z,100.00
2023-01-12T08:19:46.090Z,100.00
2023-01-12T08:22:19.076Z,100.00
2023-01-12T08:24:54.513Z,100.00
2023-01-12T08:27:25.817Z,100.00
2023-01-12T08:29:57.518Z,100.00
2023-01-12T08:32:28.598Z,100.00
2023-01-12T08:35:01.753Z,100.00
2023-01-12T08:37:31.217Z,100.00
2023-01-12T08:39:58.736Z,100.00
2023-01-12T08:42:29.671Z,100.00
2023-01-12T08:44:58.344Z,100.00
2023-01-12T08:47:28.303Z,100.00
2023-01-12T08:49:59.179Z,100.00
2023-01-12T08:52:45.314Z,100.00
2023-01-12T08:55:12.913Z,100.00
2023-01-12T08:57:40.375Z,100.00
2023-01-12T09:00:14.226Z,100.00
2023-01-12T09:02:41.815Z,100.00
2023-01-12T09:05:09.536Z,100.00
2023-01-12T09:07:37.271Z,100.00
2023-01-12T09:10:06.447Z,100.00
2023-01-12T09:12:33.804Z,100.00
2023-01-12T09:15:01.089Z,100.00
2023-01-12T09:17:28.741Z,100.00
2023-01-12T09:19:56.103Z,100.00
2023-01-12T09:22:24.293Z,100.00
2023-01-12T09:24:51.744Z,100.00
2023-01-12T09:27:19.085Z,100.00
2023-01-12T09:29:46.629Z,100.00
2023-01-12T09:32:14.055Z,100.00
2023-01-12T09:34:41.501Z,100.00
2023-01-12T09:37:08.951Z,100.00
2023-01-12T09:39:36.305Z,100.00
2023-01-12T09:42:23.997Z,98.65
2023-01-12T09:45:11.285Z,96.20
2023-01-12T09:47:48.545Z,94.76
2023-01-12T09:50:20.490Z,99.13
2023-01-12T09:52:54.792Z,97.76
2023-01-12T09:55:25.178Z,96.15
2023-01-12T09:57:58.378Z,94.51
2023-01-12T10:00:28.173Z,91.41
2023-01-12T10:03:10.697Z,88.40
2023-01-12T10:05:42.359Z,89.74
2023-01-12T10:08:33.785Z,87.67
2023-01-12T10:11:30.493Z,87.97
2023-01-12T10:14:18.009Z,89.31
2023-01-12T10:16:51.430Z,88.82
2023-01-12T10:19:27.886Z,92.03
2023-01-12T10:21:56.177Z,91.04
2023-01-12T10:24:25.572Z,89.02
2023-01-12T10:27:01.375Z,90.35
2023-01-12T10:29:31.856Z,88.97
2023-01-12T10:31:59.463Z,86.92
2023-01-12T10:34:26.965Z,95.79
2023-01-12T10:36:59.513Z,93.16
2023-01-12T10:39:35.686Z,92.78
2023-01-12T10:42:43.989Z,94.10
2023-01-12T10:45:18.713Z,97.83
2023-01-12T10:47:47.210Z,94.89
2023-01-12T10:50:27.971Z,93.04
2023-01-12T10:53:05.896Z,90.98
2023-01-12T10:55:38.324Z,88.23
2023-01-12T10:58:19.668Z,88.17
2023-01-12T11:00:49.765Z,90.60
2023-01-12T11:03:32.065Z,91.17
2023-01-12T11:06:18.402Z,97.54
2023-01-12T11:08:45.796Z,95.08
2023-01-12T11:11:31.057Z,91.41
2023-01-12T11:14:03.400Z,91.56
2023-01-12T11:16:32.140Z,91.93
2023-01-12T11:19:31.469Z,93.95
2023-01-12T11:22:13.372Z,89.36
2023-01-12T11:24:57.330Z,87.42
2023-01-12T11:27:27.535Z,88.27
2023-01-12T11:29:58.835Z,91.14
2023-01-12T11:32:38.195Z,89.78
2023-01-12T11:35:22.517Z,91.42
2023-01-12T11:37:54.105Z,89.00
2023-01-12T11:40:32.991Z,91.70
2023-01-12T11:43:34.704Z,93.51
2023-01-12T11:46:22.658Z,95.37
2023-01-12T11:49:08.540Z,92.41
2023-01-12T11:51:36.455Z,89.77
2023-01-12T11:54:06.600Z,88.96
2023-01-12T11:57:01.263Z,89.64
2023-01-12T12:00:00.710Z,92.81
2023-01-12T12:02:37.533Z,91.18
2023-01-12T12:05:23.467Z,92.95
2023-01-12T12:07:53.594Z,92.02
2023-01-12T12:10:34.906Z,91.45
2023-01-12T12:13:30.714Z,94.75
2023-01-12T12:16:16.397Z,93.31
2023-01-12T12:18:56.094Z,93.35
2023-01-12T12:21:41.608Z,92.74
2023-01-12T12:24:14.908Z,93.42
2023-01-12T12:26:48.190Z,92.64
2023-01-12T12:29:31.186Z,94.21
2023-01-12T12:32:13.490Z,93.38
2023-01-12T12:34:49.293Z,93.67
2023-01-12T12:37:22.362Z,91.40
2023-01-12T12:39:57.296Z,95.00
2023-01-12T12:42:54.521Z,92.93
2023-01-12T12:46:00.179Z,93.64
2023-01-12T12:48:36.327Z,91.88
2023-01-12T12:51:07.744Z,92.16
2023-01-12T12:53:42.198Z,90.31
2023-01-12T12:56:16.114Z,90.13
2023-01-12T12:58:47.273Z,89.60
2023-01-12T13:01:20.566Z,89.67
2023-01-12T13:03:56.367Z,89.72
2023-01-12T13:06:29.575Z,92.05
2023-01-12T13:08:59.549Z,91.21
2023-01-12T13:11:57.872Z,91.17
2023-01-12T13:14:36.024Z,91.69
2023-01-12T13:17:29.145Z,89.98
2023-01-12T13:20:08.509Z,87.20
2023-01-12T13:22:46.630Z,86.70
2023-01-12T13:25:16.752Z,85.13
2023-01-12T13:28:03.997Z,84.86
2023-01-12T13:30:31.514Z,84.82
2023-01-12T13:33:00.277Z,86.16
2023-01-12T13:35:47.636Z,85.68
2023-01-12T13:38:43.906Z,86.55
2023-01-12T13:41:11.906Z,84.66
2023-01-12T13:43:49.793Z,83.28
2023-01-12T13:46:37.870Z,83.22
2023-01-12T13:49:30.521Z,83.32
2023-01-12T13:52:05.190Z,81.33
2023-01-12T13:54:37.255Z,81.03
2023-01-12T13:57:26.316Z,79.78
2023-01-12T14:00:11.940Z,80.82
2023-01-12T14:02:42.370Z,79.64
2023-01-12T14:05:35.951Z,78.80
2023-01-12T14:08:51.754Z,79.83
2023-01-12T14:11:30.269Z,78.60
2023-01-12T14:14:57.764Z,80.69
2023-01-12T14:17:49.915Z,77.60
2023-01-12T14:20:33.009Z,78.08
2023-01-12T14:23:17.143Z,78.08
2023-01-12T14:25:46.566Z,76.59
2023-01-12T14:28:24.601Z,75.54
2023-01-12T14:30:54.580Z,78.91
2023-01-12T14:33:34.395Z,76.21
2023-01-12T14:36:17.823Z,75.13
2023-01-12T14:38:46.213Z,77.08
2023-01-12T14:41:39.124Z,77.28
2023-01-12T14:44:33.453Z,76.16
2023-01-12T14:47:01.005Z,76.47
2023-01-12T14:49:31.630Z,76.50
2023-01-12T14:52:21.989Z,79.44
2023-01-12T14:54:49.743Z,79.29
2023-01-12T14:57:26.885Z,79.61
2023-01-12T14:59:55.075Z,81.31
2023-01-12T15:02:39.088Z,82.43
2023-01-12T15:05:19.861Z,82.35
2023-01-12T15:07:55.954Z,82.06
2023-01-12T15:10:42.376Z,81.46
2023-01-12T15:13:40.807Z,83.24
2023-01-12T15:16:28.016Z,84.04
2023-01-12T15:19:13.766Z,86.11
2023-01-12T15:22:02.796Z,86.37
2023-01-12T15:24:51.900Z,88.65
2023-01-12T15:27:22.545Z,89.57
2023-01-12T15:29:50.780Z,90.41
2023-01-12T15:32:21.230Z,92.28
2023-01-12T15:34:52.279Z,93.11
2023-01-12T15:37:20.734Z,95.30
2023-01-12T15:39:48.353Z,97.72
2023-01-12T15:42:22.279Z,96.33
2023-01-12T15:44:51.778Z,95.89
2023-01-12T15:47:20.455Z,96.91
2023-01-12T15:49:49.134Z,96.97
2023-01-12T15:52:22.744Z,96.96
2023-01-12T15:54:50.940Z,100.00
2023-01-12T15:57:18.968Z,100.00
2023-01-12T15:59:46.401Z,100.00
2023-01-12T16:02:35.331Z,100.00
2023-01-12T16:05:06.447Z,100.00
2023-01-12T16:07:34.025Z,100.00
2023-01-12T16:10:01.620Z,100.00
2023-01-12T16:12:29.170Z,100.00
2023-01-12T16:14:58.672Z,100.00
2023-01-12T16:17:26.287Z,100.00
2023-01-12T16:19:56.759Z,100.00
2023-01-12T16:22:26.889Z,100.00
2023-01-12T16:24:57.307Z,100.00
2023-01-12T16:27:26.884Z,100.00
2023-01-12T16:29:54.733Z,100.00
2023-01-12T16:32:26.522Z,100.00
2023-01-12T16:34:54.217Z,100.00
2023-01-12T16:37:23.250Z,100.00
2023-01-12T16:39:50.745Z,100.00
2023-01-12T16:42:18.393Z,100.00
2023-01-12T16:44:49.464Z,100.00
2023-01-12T16:47:19.669Z,100.00
2023-01-12T16:49:51.185Z,100.00
2023-01-12T16:52:22.176Z,100.00
2023-01-12T16:54:49.674Z,100.00
2023-01-12T16:57:18.271Z,100.00
2023-01-12T16:59:45.988Z,100.00
2023-01-12T17:02:17.577Z,100.00
2023-01-12T17:04:45.868Z,100.00
2023-01-12T17:07:13.674Z,100.00
2023-01-12T17:09:41.269Z,100.00
2023-01-12T17:12:09.015Z,100.00
2023-01-12T17:14:36.796Z,100.00
2023-01-12T17:17:08.328Z,100.00
2023-01-12T17:19:37.982Z,100.00
2023-01-12T17:22:07.789Z,100.00
2023-01-12T17:24:39.754Z,100.00
2023-01-12T17:27:09.204Z,100.00
2023-01-12T17:29:37.245Z,100.00
2023-01-12T17:32:06.806Z,100.00
2023-01-12T17:34:41.658Z,100.00
2023-01-12T17:37:10.541Z,100.00
2023-01-12T17:39:50.047Z,100.00
2023-01-12T17:42:36.321Z,100.00
2023-01-12T17:45:05.513Z,100.00
2023-01-12T17:47:42.135Z,100.00
2023-01-12T17:50:11.317Z,100.00
2023-01-12T17:52:41.178Z,100.00
2023-01-12T17:55:08.931Z,100.00
2023-01-12T17:57:36.788Z,100.00
2023-01-12T18:00:06.739Z,100.00
2023-01-12T18:02:40.437Z,100.00
2023-01-12T18:05:08.522Z,100.00
2023-01-12T18:07:36.489Z,100.00
2023-01-12T18:10:04.281Z,100.00
2023-01-12T18:12:32.003Z,100.00
2023-01-12T18:15:01.546Z,100.00
2023-01-12T18:17:32.935Z,100.00
2023-01-12T18:20:00.375Z,100.00
2023-01-12T18:22:27.849Z,100.00
2023-01-12T18:24:55.761Z,100.00
2023-01-12T18:27:25.919Z,100.00
2023-01-12T18:29:54.251Z,100.00
2023-01-12T18:32:21.763Z,100.00
2023-01-12T18:34:49.421Z,100.00
2023-01-12T18:37:17.274Z,100.00
2023-01-12T18:39:48.608Z,100.00
2023-01-12T18:42:34.560Z,100.00
2023-01-12T18:45:04.983Z,100.00
2023-01-12T18:47:56.952Z,100.00
2023-01-12T18:50:42.861Z,100.00
2023-01-12T18:53:25.377Z,100.00
2023-01-12T18:55:56.959Z,100.00
2023-01-12T18:58:27.535Z,100.00
2023-01-12T19:01:02.780Z,100.00
2023-01-12T19:03:31.054Z,100.00
2023-01-12T19:06:19.274Z,100.00
2023-01-12T19:09:05.445Z,100.00
2023-01-12T19:11:33.079Z,100.00
2023-01-12T19:14:18.865Z,100.00
2023-01-12T19:17:04.652Z,100.00
2023-01-12T19:19:32.419Z,100.00
2023-01-12T19:22:18.663Z,100.00
2023-01-12T19:25:04.331Z,100.00
2023-01-12T19:27:50.528Z,100.00
2023-01-12T19:30:18.026Z,100.00
2023-01-12T19:32:45.490Z,100.00
2023-01-12T19:35:13.070Z,100.00
2023-01-12T19:37:45.902Z,100.00
2023-01-12T19:40:21.102Z,100.00
2023-01-12T19:43:06.718Z,100.00
2023-01-12T19:45:37.146Z,100.00
2023-01-12T19:48:04.869Z,100.00
2023-01-12T19:50:32.308Z,100.00
2023-01-12T19:52:59.971Z,100.00
2023-01-12T19:55:27.326Z,100.00
2023-01-12T19:57:55.069Z,100.00
2023-01-12T20:00:22.714Z,100.00
2023-01-12T20:02:50.149Z,100.00
2023-01-12T20:05:22.573Z,100.00
2023-01-12T20:07:52.717Z,100.00
2023-01-12T20:10:23.733Z,100.00
2023-01-12T20:12:52.438Z,100.00
2023-01-12T20:15:20.828Z,100.00
2023-01-12T20:17:49.287Z,100.00
2023-01-12T20:20:17.396Z,100.00
2023-01-12T20:22:45.100Z,100.00
2023-01-12T20:25:12.541Z,100.00
2023-01-12T20:27:40.255Z,100.00
2023-01-12T20:30:08.411Z,100.00
2023-01-12T20:32:41.635Z,100.00
2023-01-12T20:35:13.344Z,100.00
2023-01-12T20:37:42.043Z,100.00
2023-01-12T20:40:11.608Z,100.00
2023-01-12T20:42:39.944Z,100.00
2023-01-12T20:45:09.612Z,100.00
2023-01-12T20:47:37.413Z,100.00
2023-01-12T20:50:07.623Z,100.00
2023-01-12T20:52:35.470Z,100.00
2023-01-12T20:55:02.945Z,100.00
2023-01-12T20:57:31.736Z,100.00
2023-01-12T20:59:59.297Z,100.00
2023-01-12T21:02:27.495Z,100.00
2023-01-12T21:04:55.120Z,100.00
2023-01-12T21:07:22.481Z,100.00
2023-01-12T21:09:52.026Z,100.00
2023-01-12T21:12:21.773Z,100.00
2023-01-12T21:14:50.220Z,100.00
2023-01-12T21:17:19.092Z,100.00
2023-01-12T21:19:46.748Z,100.00
2023-01-12T21:22:14.376Z,100.00
2023-01-12T21:24:41.897Z,100.00
2023-01-12T21:27:13.147Z,100.00
2023-01-12T21:29:40.595Z,100.00
2023-01-12T21:32:08.351Z,100.00
2023-01-12T21:34:35.856Z,100.00
2023-01-12T21:37:03.326Z,100.00
2023-01-12T21:39:31.014Z,100.00
2023-01-12T21:42:16.875Z,100.00
2023-01-12T21:44:44.700Z,100.00
2023-01-12T21:47:12.089Z,100.00
2023-01-12T21:49:39.536Z,100.00
2023-01-12T21:52:06.970Z,100.00
2023-01-12T21:54:34.600Z,100.00
2023-01-12T21:57:02.153Z,100.00
2023-01-12T21:59:29.730Z,100.00
2023-01-12T22:01:57.633Z,100.00
2023-01-12T22:04:25.229Z,100.00
2023-01-12T22:06:53.119Z,100.00
2023-01-12T22:09:20.847Z,100.00
2023-01-12T22:11:48.272Z,100.00
2023-01-12T22:14:15.787Z,100.00
2023-01-12T22:16:43.237Z,100.00
2023-01-12T22:19:10.678Z,100.00
2023-01-12T22:21:38.496Z,100.00
2023-01-12T22:24:06.432Z,100.00
2023-01-12T22:26:33.929Z,100.00
2023-01-12T22:29:01.438Z,100.00
2023-01-12T22:31:29.119Z,100.00
2023-01-12T22:34:06.577Z,100.00
2023-01-12T22:36:42.691Z,100.00
2023-01-12T22:39:13.428Z,100.00
2023-01-12T22:41:41.299Z,100.00
2023-01-12T22:44:08.839Z,100.00
2023-01-12T22:46:37.008Z,100.00
2023-01-12T22:49:04.651Z,100.00
2023-01-12T22:51:32.184Z,100.00
2023-01-12T22:54:00.071Z,100.00
2023-01-12T22:56:27.658Z,100.00
2023-01-12T22:58:55.882Z,100.00
2023-01-12T23:01:25.602Z,100.00
2023-01-12T23:03:57.625Z,100.00
2023-01-12T23:06:26.370Z,100.00
2023-01-12T23:08:53.979Z,100.00
2023-01-12T23:11:26.589Z,100.00
2023-01-12T23:13:57.361Z,100.00
2023-01-12T23:16:25.983Z,100.00
2023-01-12T23:18:55.216Z,100.00
2023-01-12T23:21:26.514Z,100.00
2023-01-12T23:23:58.728Z,100.00
2023-01-12T23:26:30.911Z,100.00
2023-01-12T23:29:00.616Z,100.00
2023-01-12T23:31:30.472Z,100.00
2023-01-12T23:33:58.075Z,100.00
2023-01-12T23:36:27.820Z,100.00
2023-01-12T23:38:59.575Z,100.00
2023-01-12T23:41:29.298Z,100.00
2023-01-12T23:43:59.556Z,100.00
2023-01-12T23:46:28.983Z,100.00
2023-01-12T23:48:57.857Z,100.00
2023-01-12T23:51:27.526Z,100.00
2023-01-12T23:53:59.753Z,100.00
2023-01-12T23:56:29.559Z,100.00
2023-01-12T23:58:57.124Z,100.00
